Time;durP1;ratioP1;P1;durP2;ratioP2;P2;SDS_P1;SDS_P2;PMS_P1;PMS_P2;Temp;Humidity;BMP_temperature;BMP_pressure;BME280_temperature;BME280_humidity;BME280_pressure;Samples;Min_cycle;Max_cycle;Signal;HPM_P1;HPM_P2
2023/07/26 00:00:43;;;;;;;8.82;3.08;;;;;;;16.46;69.60;100930.75;5110378;28;20495;-60
2023/07/26 00:03:10;;;;;;;8.20;2.95;;;;;;;16.52;69.33;100921.03;5112564;28;20051;-58
2023/07/26 00:05:37;;;;;;;6.97;3.05;;;;;;;16.47;68.49;100926.03;5110832;28;20043;-60
2023/07/26 00:08:05;;;;;;;5.47;2.42;;;;;;;16.59;68.30;100929.63;5110818;28;20054;-57
2023/07/26 00:10:32;;;;;;;7.43;3.08;;;;;;;16.67;68.24;100936.19;5110907;28;20047;-58
2023/07/26 00:12:59;;;;;;;8.13;2.45;;;;;;;16.67;67.11;100930.63;5091841;28;20047;-59
2023/07/26 00:15:27;;;;;;;6.05;2.58;;;;;;;16.48;67.73;100928.44;5111260;28;20048;-61
2023/07/26 00:17:54;;;;;;;5.30;2.33;;;;;;;16.42;68.41;100929.78;5110139;28;20040;-58
2023/07/26 00:20:22;;;;;;;5.72;2.22;;;;;;;16.43;67.46;100936.19;5110895;28;20414;-61
2023/07/26 00:22:49;;;;;;;7.43;2.60;;;;;;;16.31;68.23;100934.22;5086041;28;20048;-58
2023/07/26 00:25:16;;;;;;;6.78;2.40;;;;;;;16.29;67.92;100938.47;5110302;28;20043;-62
2023/07/26 00:27:44;;;;;;;7.45;2.00;;;;;;;16.38;67.80;100933.63;5110632;28;20051;-59
2023/07/26 00:30:14;;;;;;;5.78;2.40;;;;;;;16.25;68.17;100940.34;5089652;28;20044;-58
2023/07/26 00:32:41;;;;;;;5.05;2.20;;;;;;;16.34;68.01;100941.03;5092906;28;20518;-58
2023/07/26 00:35:18;;;;;;;6.35;2.42;;;;;;;16.58;66.52;100929.97;5111164;28;20048;-57
2023/07/26 00:37:48;;;;;;;5.18;2.30;;;;;;;16.28;67.03;100934.09;5108962;28;20066;-57
2023/07/26 00:40:15;;;;;;;5.35;2.50;;;;;;;16.33;67.56;100929.13;5109886;28;20048;-60
2023/07/26 00:42:43;;;;;;;10.27;2.25;;;;;;;16.29;67.48;100930.97;5110074;28;20058;-59
2023/07/26 00:45:10;;;;;;;4.97;2.20;;;;;;;16.29;67.02;100933.75;5108261;28;20049;-61
2023/07/26 00:47:38;;;;;;;5.45;2.25;;;;;;;16.32;66.55;100935.03;5110114;28;20047;-58
2023/07/26 00:50:06;;;;;;;4.50;2.40;;;;;;;16.24;66.47;100935.94;5109103;28;20051;-60
2023/07/26 00:52:34;;;;;;;5.35;2.22;;;;;;;16.16;66.62;100936.88;5092080;28;20626;-56
2023/07/26 00:55:02;;;;;;;5.07;2.10;;;;;;;16.14;66.63;100939.16;5075472;28;20066;-56
2023/07/26 00:57:30;;;;;;;5.47;2.10;;;;;;;16.20;66.44;100941.38;5072213;28;20063;-57
2023/07/26 00:59:58;;;;;;;5.70;2.30;;;;;;;15.81;67.20;100939.22;5105985;28;20414;-57
2023/07/26 01:02:25;;;;;;;4.78;2.22;;;;;;;15.91;67.65;100935.19;5094054;28;20066;-58
2023/07/26 01:04:53;;;;;;;5.47;2.40;;;;;;;15.97;67.44;100931.03;5110696;28;20047;-59
2023/07/26 01:07:39;;;;;;;5.35;2.20;;;;;;;15.96;67.31;100932.19;5074946;28;20047;-56
2023/07/26 01:10:13;;;;;;;6.10;2.22;;;;;;;16.05;67.03;100939.28;5105709;28;20051;-59
2023/07/26 01:12:47;;;;;;;7.00;2.78;;;;;;;16.02;67.18;100930.81;5109073;28;20047;-56
2023/07/26 01:15:15;;;;;;;4.85;2.10;;;;;;;15.96;66.96;100933.00;5108689;28;20048;-61
2023/07/26 01:17:45;;;;;;;4.60;2.40;;;;;;;15.91;67.33;100926.84;5112836;28;20051;-58
2023/07/26 01:20:12;;;;;;;6.25;2.53;;;;;;;16.03;67.53;100922.13;5108939;28;20039;-58
2023/07/26 01:22:40;;;;;;;5.93;2.60;;;;;;;15.89;67.16;100921.63;5114775;28;20050;-57
2023/07/26 01:25:08;;;;;;;4.47;2.45;;;;;;;16.03;67.23;100924.91;5095561;28;20055;-59
2023/07/26 01:27:35;;;;;;;6.47;2.83;;;;;;;16.10;66.81;100927.13;5096498;28;20047;-59
2023/07/26 01:30:04;;;;;;;6.15;2.20;;;;;;;16.14;67.06;100925.28;5110664;28;20043;-58
2023/07/26 01:32:31;;;;;;;4.28;2.63;;;;;;;16.08;67.02;100923.88;5094911;28;20047;-58
2023/07/26 01:34:59;;;;;;;5.57;2.50;;;;;;;15.92;67.60;100925.72;5109750;28;20047;-60
2023/07/26 01:37:28;;;;;;;4.70;2.35;;;;;;;16.00;67.77;100927.56;5113395;28;20055;-59
2023/07/26 01:39:55;;;;;;;6.40;2.28;;;;;;;15.97;67.15;100917.16;5114560;28;20054;-60
2023/07/26 01:42:23;;;;;;;5.70;2.58;;;;;;;16.03;67.58;100926.88;5108955;28;20044;-60
2023/07/26 01:44:50;;;;;;;5.63;2.35;;;;;;;16.22;66.71;100927.13;5094989;28;20051;-61
2023/07/26 01:47:17;;;;;;;6.00;2.10;;;;;;;16.27;66.79;100915.78;5110895;28;20671;-60
2023/07/26 01:49:47;;;;;;;5.63;2.17;;;;;;;16.36;65.81;100919.25;5111773;28;20061;-59
2023/07/26 01:52:14;;;;;;;4.18;2.10;;;;;;;16.24;66.11;100917.31;5095019;28;20079;-58
2023/07/26 01:54:42;;;;;;;4.00;2.10;;;;;;;16.23;66.43;100915.66;5114488;28;20051;-62
2023/07/26 01:57:09;;;;;;;7.80;2.42;;;;;;;16.07;66.70;100913.91;5113994;28;20522;-59
2023/07/26 01:59:36;;;;;;;6.30;2.17;;;;;;;16.15;66.82;100907.44;5113996;28;20040;-58
2023/07/26 02:02:04;;;;;;;5.45;2.38;;;;;;;16.14;66.92;100917.75;5111202;28;20391;-59
2023/07/26 02:04:31;;;;;;;6.82;2.22;;;;;;;16.11;66.72;100912.88;5095600;28;20055;-58
2023/07/26 02:06:59;;;;;;;7.82;2.40;;;;;;;16.11;66.79;100912.88;5096570;28;20056;-58
2023/07/26 02:09:26;;;;;;;7.00;2.28;;;;;;;16.22;66.39;100907.66;5093533;28;20043;-58
2023/07/26 02:11:53;;;;;;;5.97;2.30;;;;;;;16.43;65.51;100911.97;5094534;28;20044;-60
2023/07/26 02:14:22;;;;;;;5.75;2.33;;;;;;;16.45;65.50;100906.88;5113642;28;20467;-59
2023/07/26 02:16:50;;;;;;;6.22;2.30;;;;;;;16.22;66.05;100914.06;5094264;28;20675;-58
2023/07/26 02:19:17;;;;;;;5.40;2.30;;;;;;;16.24;66.38;100910.91;5112778;28;20102;-58
2023/07/26 02:21:44;;;;;;;6.13;2.20;;;;;;;16.03;66.63;100924.09;5087099;28;20220;-59
2023/07/26 02:24:11;;;;;;;5.15;2.28;;;;;;;16.00;67.41;100916.44;5093979;28;20039;-59
2023/07/26 02:26:39;;;;;;;4.50;1.88;;;;;;;16.01;67.58;100918.88;5093602;28;20055;-59
2023/07/26 02:29:08;;;;;;;5.53;1.93;;;;;;;16.18;67.14;100920.66;5110499;28;20043;-58
2023/07/26 02:31:36;;;;;;;4.80;1.83;;;;;;;16.19;67.22;100920.31;5094407;28;20698;-57
2023/07/26 02:34:04;;;;;;;6.90;2.28;;;;;;;16.17;67.14;100916.25;5094161;28;20044;-59
2023/07/26 02:36:31;;;;;;;6.35;2.03;;;;;;;16.05;67.60;100919.00;5113072;28;20055;-59
2023/07/26 02:38:59;;;;;;;5.55;2.30;;;;;;;16.30;66.88;100915.09;5111022;28;20086;-58
2023/07/26 02:41:26;;;;;;;3.92;2.10;;;;;;;16.24;67.43;100916.47;5094302;28;20040;-58
2023/07/26 02:43:53;;;;;;;6.00;2.40;;;;;;;16.22;67.42;100916.81;5112487;28;20043;-58
2023/07/26 02:46:21;;;;;;;4.88;2.13;;;;;;;16.06;68.28;100913.09;5113084;28;20051;-57
2023/07/26 02:48:48;;;;;;;8.23;2.28;;;;;;;16.27;67.05;100922.16;5110925;28;20051;-58
2023/07/26 02:51:17;;;;;;;9.25;2.60;;;;;;;16.21;67.97;100923.56;5093358;28;20040;-59
2023/07/26 02:53:45;;;;;;;5.70;2.30;;;;;;;16.46;66.72;100921.56;5110921;28;20051;-60
2023/07/26 02:56:12;;;;;;;4.57;2.22;;;;;;;16.31;67.11;100919.50;5111540;28;20035;-57
2023/07/26 02:58:39;;;;;;;4.88;2.30;;;;;;;16.14;67.70;100919.72;5093994;28;20051;-58
2023/07/26 03:01:07;;;;;;;7.53;2.70;;;;;;;16.09;68.02;100922.72;5093952;28;20032;-58
2023/07/26 03:03:34;;;;;;;6.90;2.58;;;;;;;15.96;69.00;100919.09;5112668;28;20043;-58
2023/07/26 03:06:02;;;;;;;7.03;2.70;;;;;;;16.01;69.13;100916.09;5111536;28;20051;-60
2023/07/26 03:08:29;;;;;;;5.68;2.50;;;;;;;16.07;68.99;100911.13;5088135;28;20648;-58
2023/07/26 03:10:56;;;;;;;6.18;2.47;;;;;;;16.17;68.72;100922.63;5093993;28;20059;-59
2023/07/26 03:13:23;;;;;;;6.25;2.60;;;;;;;16.01;68.79;100915.28;5094203;28;20051;-56
2023/07/26 03:15:52;;;;;;;4.22;2.30;;;;;;;16.00;69.10;100913.69;5093466;28;20063;-58
2023/07/26 03:18:20;;;;;;;6.22;2.42;;;;;;;15.94;69.24;100913.06;5094870;28;20044;-58
2023/07/26 03:20:47;;;;;;;6.25;2.38;;;;;;;15.82;69.67;100917.78;5110601;28;20040;-57
2023/07/26 03:23:14;;;;;;;7.53;2.67;;;;;;;15.85;70.18;100919.91;5111091;28;20051;-59
2023/07/26 03:25:42;;;;;;;5.18;2.30;;;;;;;15.99;69.74;100931.50;5111902;28;20044;-60
2023/07/26 03:28:09;;;;;;;7.55;2.67;;;;;;;16.08;69.25;100932.19;5094414;28;20051;-58
2023/07/26 03:30:37;;;;;;;4.72;2.20;;;;;;;16.20;69.66;100933.03;5112337;28;20031;-57
2023/07/26 03:33:04;;;;;;;5.07;2.63;;;;;;;16.06;69.38;100935.31;5092863;28;20044;-59
2023/07/26 03:35:32;;;;;;;7.40;2.75;;;;;;;15.82;70.33;100937.22;5111510;28;20047;-58
2023/07/26 03:37:59;;;;;;;4.93;2.42;;;;;;;15.83;70.48;100936.09;5108875;28;20052;-58
2023/07/26 03:40:26;;;;;;;7.97;2.58;;;;;;;16.03;70.05;100940.75;5110656;28;20458;-57
2023/07/26 03:42:54;;;;;;;7.85;2.67;;;;;;;15.99;69.92;100937.84;5110922;27;20055;-59
2023/07/26 03:45:21;;;;;;;6.30;2.85;;;;;;;15.92;70.12;100937.59;5112501;28;20054;-58
2023/07/26 03:47:48;;;;;;;8.07;2.60;;;;;;;15.98;69.80;100939.03;5093071;28;20052;-56
2023/07/26 03:50:20;;;;;;;4.20;2.20;;;;;;;16.06;70.05;100937.28;5088854;28;20047;-58
2023/07/26 03:52:48;;;;;;;8.13;2.40;;;;;;;15.92;70.19;100932.06;5111222;28;20051;-58
2023/07/26 03:55:15;;;;;;;7.75;2.42;;;;;;;15.83;70.64;100927.75;5110433;28;20051;-59
2023/07/26 03:57:43;;;;;;;7.35;2.60;;;;;;;15.77;71.22;100935.50;5092676;28;20044;-59
2023/07/26 04:00:12;;;;;;;5.00;2.65;;;;;;;15.86;70.68;100932.63;5092858;28;20039;-59
2023/07/26 04:02:40;;;;;;;4.55;2.70;;;;;;;15.90;71.15;100925.25;5111601;28;20048;-59
2023/07/26 04:05:07;;;;;;;8.05;2.42;;;;;;;15.81;71.70;100918.97;5109524;28;20038;-57
2023/07/26 04:07:36;;;;;;;5.20;2.50;;;;;;;15.75;71.75;100924.75;5093213;28;20498;-61
2023/07/26 04:10:04;;;;;;;5.80;2.25;;;;;;;15.67;72.46;100931.16;5106634;28;20061;-57
2023/07/26 04:12:31;;;;;;;5.35;2.83;;;;;;;15.74;72.90;100925.88;5109824;28;20055;-59
2023/07/26 04:14:59;;;;;;;5.60;2.95;;;;;;;15.77;72.52;100929.94;5093548;28;20692;-56
2023/07/26 04:17:26;;;;;;;6.05;2.83;;;;;;;15.64;72.95;100926.31;5111554;28;20050;-59
2023/07/26 04:19:53;;;;;;;6.03;2.72;;;;;;;15.50;73.72;100924.97;5089689;28;20051;-58
2023/07/26 04:22:21;;;;;;;7.03;2.80;;;;;;;15.65;73.84;100924.34;5109995;28;20052;-62
2023/07/26 04:24:48;;;;;;;7.47;3.08;;;;;;;15.90;73.12;100925.25;5109741;28;20058;-58
2023/07/26 04:27:15;;;;;;;8.27;2.75;;;;;;;15.58;74.21;100919.38;5111698;28;20039;-58
2023/07/26 04:29:43;;;;;;;4.90;2.72;;;;;;;15.54;74.55;100923.97;5110615;28;20483;-62
2023/07/26 04:32:10;;;;;;;9.00;2.80;;;;;;;15.48;75.37;100928.09;5087366;28;20055;-59
2023/07/26 04:34:38;;;;;;;6.47;2.92;;;;;;;15.52;75.38;100925.44;5111411;28;20487;-58
2023/07/26 04:37:05;;;;;;;8.10;3.25;;;;;;;15.47;75.81;100928.44;5110048;28;20063;-59
2023/07/26 04:39:32;;;;;;;6.07;2.75;;;;;;;15.32;76.30;100929.03;5110261;28;20070;-59
2023/07/26 04:42:00;;;;;;;5.97;2.75;;;;;;;15.24;77.61;100929.91;5109367;28;20043;-60
2023/07/26 04:44:27;;;;;;;7.45;3.03;;;;;;;15.33;77.19;100928.69;5114447;28;20047;-56
2023/07/26 04:46:54;;;;;;;11.85;3.15;;;;;;;15.42;77.18;100929.47;5108381;28;20044;-57
2023/07/26 04:49:22;;;;;;;8.40;3.50;;;;;;;15.36;77.46;100932.78;5111908;28;20047;-59
2023/07/26 04:51:49;;;;;;;6.10;3.47;;;;;;;15.22;78.41;100941.34;5094300;28;20044;-60
2023/07/26 04:54:17;;;;;;;8.60;3.55;;;;;;;15.19;78.77;100941.22;5114160;28;20067;-57
2023/07/26 04:56:44;;;;;;;8.02;3.33;;;;;;;15.30;78.17;100934.13;5114675;28;20271;-58
2023/07/26 04:59:11;;;;;;;12.05;3.42;;;;;;;15.31;78.46;100938.50;5115093;28;20051;-57
2023/07/26 05:01:39;;;;;;;9.80;3.10;;;;;;;15.37;77.79;100948.25;5114127;28;20047;-58
2023/07/26 05:04:06;;;;;;;9.13;3.33;;;;;;;15.24;79.25;100947.38;5094281;28;20055;-57
2023/07/26 05:06:34;;;;;;;7.60;3.33;;;;;;;15.27;79.83;100949.47;5111303;28;20487;-58
2023/07/26 05:09:01;;;;;;;7.95;3.38;;;;;;;15.21;80.21;100948.06;5113853;28;20047;-58
2023/07/26 05:11:29;;;;;;;8.60;3.60;;;;;;;15.21;81.00;100950.03;5114165;28;20071;-59
2023/07/26 05:13:56;;;;;;;13.27;3.72;;;;;;;15.53;79.67;100950.09;5113443;28;20119;-59
2023/07/26 05:16:24;;;;;;;9.98;3.28;;;;;;;15.39;80.65;100948.75;5114093;28;20055;-58
2023/07/26 05:18:53;;;;;;;8.90;3.65;;;;;;;15.42;80.63;100950.88;5113253;28;20051;-58
2023/07/26 05:21:20;;;;;;;6.88;3.08;;;;;;;15.23;81.30;100956.88;5095794;28;20147;-58
2023/07/26 05:23:47;;;;;;;9.50;3.25;;;;;;;15.30;82.18;100959.09;5114213;28;20701;-59
2023/07/26 05:26:15;;;;;;;9.95;3.40;;;;;;;15.35;82.28;100956.94;5078104;28;20051;-58
2023/07/26 05:28:42;;;;;;;12.55;3.95;;;;;;;15.49;82.00;100959.44;5114620;28;20050;-59
2023/07/26 05:31:10;;;;;;;9.32;3.83;;;;;;;15.48;81.86;100955.84;5094979;28;20044;-59
2023/07/26 05:33:37;;;;;;;9.13;3.45;;;;;;;15.63;82.24;100959.97;5109602;28;20048;-57
2023/07/26 05:36:05;;;;;;;14.88;3.63;;;;;;;15.70;81.85;100966.63;5113972;28;20056;-59
2023/07/26 05:38:33;;;;;;;15.05;4.40;;;;;;;15.77;82.36;100963.28;5111886;28;20783;-59
2023/07/26 05:41:03;;;;;;;13.95;3.88;;;;;;;16.16;81.04;100970.22;5112319;28;20084;-54
2023/07/26 05:43:30;;;;;;;11.00;3.30;;;;;;;16.00;81.22;100967.28;5112108;27;20043;-59
2023/07/26 05:45:58;;;;;;;10.65;4.10;;;;;;;16.04;81.35;100961.84;5112216;28;21991;-60
2023/07/26 05:48:25;;;;;;;10.30;3.80;;;;;;;15.98;81.51;100969.59;5112183;28;20047;-58
2023/07/26 05:50:52;;;;;;;8.95;4.00;;;;;;;16.09;81.66;100976.31;5103469;28;20474;-60
2023/07/26 05:53:20;;;;;;;11.30;4.13;;;;;;;16.21;80.47;100976.38;5112516;28;20048;-59
2023/07/26 05:55:47;;;;;;;7.88;3.70;;;;;;;16.07;81.06;100981.44;5113068;28;20044;-59
2023/07/26 05:58:14;;;;;;;12.70;4.10;;;;;;;15.96;82.12;100990.53;5092062;28;20052;-59
2023/07/26 06:00:41;;;;;;;15.65;4.13;;;;;;;15.73;82.84;100990.91;5112409;28;20055;-58
2023/07/26 06:03:09;;;;;;;13.77;4.20;;;;;;;15.80;83.28;100995.91;5094553;28;20048;-59
2023/07/26 06:05:36;;;;;;;10.27;4.03;;;;;;;15.68;83.78;100993.91;5094129;28;20043;-59
2023/07/26 06:08:04;;;;;;;10.48;3.80;;;;;;;15.84;83.87;100996.03;5093194;28;20059;-59
2023/07/26 06:10:32;;;;;;;10.02;4.00;;;;;;;15.85;83.69;101003.25;5112630;28;20494;-59
2023/07/26 06:12:59;;;;;;;10.30;3.70;;;;;;;16.01;83.49;101010.56;5113270;28;20039;-59
2023/07/26 06:15:26;;;;;;;10.05;3.88;;;;;;;15.78;83.72;101004.59;5094781;28;20058;-59
2023/07/26 06:17:53;;;;;;;8.40;3.60;;;;;;;15.83;84.75;101000.78;5111565;28;20044;-59
2023/07/26 06:20:21;;;;;;;10.80;4.20;;;;;;;15.77;84.58;101008.53;5087361;28;20059;-59
2023/07/26 06:22:48;;;;;;;13.85;4.70;;;;;;;15.51;85.43;101007.13;5112055;28;20044;-60
2023/07/26 06:25:16;;;;;;;11.68;4.25;;;;;;;15.56;86.86;101016.06;5094411;28;20051;-59
2023/07/26 06:27:43;;;;;;;11.15;4.25;;;;;;;15.83;85.82;101013.88;5112514;28;20601;-61
2023/07/26 06:30:12;;;;;;;10.82;4.15;;;;;;;16.03;83.79;101024.13;5110997;28;20043;-59
2023/07/26 06:32:39;;;;;;;8.98;5.00;;;;;;;16.06;84.27;101006.75;5112128;28;20486;-59
2023/07/26 06:35:08;;;;;;;13.10;4.90;;;;;;;16.01;84.39;101018.91;5110062;28;20647;-62
2023/07/26 06:37:35;;;;;;;12.25;5.00;;;;;;;15.90;85.09;101017.69;5113155;28;20047;-60
2023/07/26 06:40:03;;;;;;;11.05;4.90;;;;;;;16.00;86.21;101016.47;5112044;28;20059;-57
2023/07/26 06:42:30;;;;;;;13.27;5.75;;;;;;;16.08;85.40;101024.72;5112131;28;20116;-60
2023/07/26 06:44:58;;;;;;;13.35;5.32;;;;;;;16.06;86.05;101029.81;5094724;28;20048;-60
2023/07/26 06:47:25;;;;;;;15.80;5.63;;;;;;;16.17;85.92;101021.84;5111694;28;20051;-61
2023/07/26 06:49:53;;;;;;;14.48;6.68;;;;;;;16.21;85.61;101026.41;5111318;28;20040;-58
2023/07/26 06:52:20;;;;;;;13.48;6.45;;;;;;;16.23;85.90;101028.84;5091530;28;21236;-59
2023/07/26 06:54:47;;;;;;;13.90;6.28;;;;;;;16.10;86.62;101032.72;5105306;28;20507;-59
2023/07/26 06:57:15;;;;;;;17.23;6.93;;;;;;;16.04;87.21;101036.88;5099539;28;20103;-60
2023/07/26 06:59:43;;;;;;;11.23;6.25;;;;;;;16.12;87.01;101033.19;5093497;28;20603;-59
2023/07/26 07:02:11;;;;;;;12.20;6.25;;;;;;;16.38;86.76;101023.41;5132979;27;20054;-57
2023/07/26 07:04:38;;;;;;;11.98;5.55;;;;;;;16.37;85.62;101027.34;5110587;28;20514;-58
2023/07/26 07:07:06;;;;;;;15.13;6.50;;;;;;;16.31;86.43;101022.34;5114241;28;20051;-59
2023/07/26 07:09:33;;;;;;;11.73;6.30;;;;;;;16.56;85.85;101024.84;5078771;28;20065;-59
2023/07/26 07:12:00;;;;;;;11.52;6.30;;;;;;;16.66;85.15;101023.59;5112981;28;20055;-59
2023/07/26 07:14:27;;;;;;;16.30;6.45;;;;;;;16.86;84.45;101012.34;5086009;28;20060;-60
2023/07/26 07:16:55;;;;;;;16.65;6.35;;;;;;;16.91;83.98;101016.06;5089926;28;20720;-60
2023/07/26 07:19:22;;;;;;;16.67;6.35;;;;;;;16.93;83.13;101017.31;5105357;28;20670;-59
2023/07/26 07:21:50;;;;;;;16.80;8.13;;;;;;;16.78;84.62;101015.25;5087203;28;20118;-59
2023/07/26 07:24:17;;;;;;;17.85;6.53;;;;;;;16.65;85.27;101022.78;5107590;28;20135;-61
2023/07/26 07:26:45;;;;;;;18.52;6.88;;;;;;;17.13;84.53;101021.16;5105532;28;20051;-60
2023/07/26 07:29:12;;;;;;;15.05;6.57;;;;;;;17.23;83.05;101027.06;5089039;28;20051;-62
2023/07/26 07:31:39;;;;;;;15.10;6.32;;;;;;;17.15;83.01;101028.00;5083625;28;20052;-61
2023/07/26 07:34:07;;;;;;;16.38;6.03;;;;;;;17.43;83.27;101025.28;5086408;28;20047;-60
2023/07/26 07:36:34;;;;;;;22.77;6.40;;;;;;;17.62;81.57;101015.16;5104425;28;20052;-60
2023/07/26 07:39:01;;;;;;;12.98;5.65;;;;;;;17.86;80.36;101017.03;5103820;28;20051;-60
2023/07/26 07:41:29;;;;;;;16.80;5.45;;;;;;;18.01;79.30;101004.31;5103426;28;20044;-60
2023/07/26 07:43:57;;;;;;;14.30;5.00;;;;;;;18.09;78.09;101004.16;5102057;28;20047;-61
2023/07/26 07:46:28;;;;;;;18.88;5.40;;;;;;;18.12;76.85;100999.81;5083017;28;20048;-60
2023/07/26 07:48:56;;;;;;;22.40;6.00;;;;;;;18.50;75.81;100991.69;5086647;28;20052;-61
2023/07/26 07:51:23;;;;;;;15.20;5.50;;;;;;;18.56;74.53;101007.84;5102642;28;20415;-60
2023/07/26 07:53:50;;;;;;;13.15;5.25;;;;;;;18.83;72.97;101001.31;5102011;28;20042;-61
2023/07/26 07:56:18;;;;;;;16.30;5.00;;;;;;;18.73;72.77;101003.84;5103794;28;20048;-61
2023/07/26 07:58:45;;;;;;;14.35;4.47;;;;;;;19.23;72.06;101000.28;5103488;28;20052;-60
2023/07/26 08:01:12;;;;;;;11.57;4.13;;;;;;;19.46;70.26;101002.00;5101196;28;20039;-61
2023/07/26 08:03:40;;;;;;;13.55;4.60;;;;;;;19.28;69.58;101000.81;5103599;28;20052;-60
2023/07/26 08:06:09;;;;;;;11.77;4.00;;;;;;;19.63;69.77;100995.19;5100288;28;20051;-60
2023/07/26 08:08:36;;;;;;;14.35;4.45;;;;;;;19.94;67.54;101006.22;5106361;28;20735;-61
2023/07/26 08:11:04;;;;;;;15.45;4.20;;;;;;;19.89;66.59;101003.72;5103953;28;20059;-60
2023/07/26 08:13:31;;;;;;;12.57;4.55;;;;;;;19.73;67.04;101003.00;5103295;28;20044;-61
2023/07/26 08:15:59;;;;;;;16.42;3.95;;;;;;;19.73;66.46;101000.19;5086499;28;20050;-61
2023/07/26 08:18:30;;;;;;;12.15;3.50;;;;;;;19.74;65.72;101004.59;5070706;28;20051;-59
2023/07/26 08:20:58;;;;;;;13.25;4.10;;;;;;;19.80;65.11;101012.34;5096773;28;20067;-60
2023/07/26 08:23:26;;;;;;;14.73;3.97;;;;;;;19.73;64.88;101008.59;5103095;28;20055;-61
2023/07/26 08:25:54;;;;;;;12.27;3.78;;;;;;;19.51;64.36;101014.91;5104302;28;20050;-62
2023/07/26 08:28:21;;;;;;;12.43;3.50;;;;;;;19.61;64.27;101011.53;5112518;28;20058;-61
2023/07/26 08:30:48;;;;;;;12.27;3.67;;;;;;;19.81;64.06;101005.56;5103370;28;20051;-62
2023/07/26 08:33:16;;;;;;;17.75;4.43;;;;;;;20.10;63.13;101010.53;5109651;28;20043;-61
2023/07/26 08:35:43;;;;;;;12.35;3.50;;;;;;;20.08;61.93;101012.88;5110098;28;20047;-60
2023/07/26 08:38:10;;;;;;;8.10;2.92;;;;;;;19.86;61.27;101008.06;5053846;28;20063;-60
2023/07/26 08:40:43;;;;;;;23.85;4.30;;;;;;;19.43;63.37;101008.34;5104631;28;20056;-61
2023/07/26 08:43:11;;;;;;;16.35;4.00;;;;;;;19.35;63.83;101017.75;5106340;28;20039;-61
2023/07/26 08:45:38;;;;;;;13.45;3.85;;;;;;;19.57;62.92;101017.03;5090451;28;20043;-61
2023/07/26 08:48:07;;;;;;;18.63;4.45;;;;;;;19.97;59.94;101009.09;5106129;28;20054;-60
2023/07/26 08:50:36;;;;;;;11.47;3.73;;;;;;;20.07;58.97;101014.06;5105580;28;20054;-60
2023/07/26 08:53:04;;;;;;;16.17;2.55;;;;;;;20.01;56.96;101012.75;5108650;28;20058;-60
2023/07/26 08:55:32;;;;;;;10.35;2.42;;;;;;;20.06;56.11;101006.88;5093213;28;20521;-60
2023/07/26 08:58:00;;;;;;;9.63;2.20;;;;;;;20.34;55.65;101011.41;5085640;28;20044;-60
2023/07/26 09:00:28;;;;;;;12.38;2.58;;;;;;;19.99;54.75;101006.75;5108353;28;20058;-61
2023/07/26 09:02:58;;;;;;;5.65;2.30;;;;;;;19.73;54.96;101008.59;5109081;28;20051;-60
2023/07/26 09:05:25;;;;;;;;;;;;;;;19.09;57.94;101004.34;5087936;28;20048;-61
2023/07/26 09:07:53;;;;;;;9.20;2.05;;;;;;;19.22;57.53;100998.63;5105311;28;19924;-60
2023/07/26 09:10:29;;;;;;;6.35;2.60;;;;;;;19.42;57.57;100994.75;5108576;28;20051;-61
2023/07/26 09:13:14;;;;;;;10.20;2.60;;;;;;;19.91;57.18;100990.19;5092640;27;20048;-60
2023/07/26 09:15:43;;;;;;;12.23;2.58;;;;;;;19.76;56.75;100986.28;5089897;28;20048;-60
2023/07/26 09:18:12;;;;;;;11.05;2.40;;;;;;;19.51;56.21;101003.72;5070511;28;20063;-61
2023/07/26 09:20:39;;;;;;;8.75;2.30;;;;;;;19.29;57.65;100993.22;5107329;28;20051;-60
2023/07/26 09:23:08;;;;;;;11.32;2.70;;;;;;;18.99;57.12;101002.13;5086421;28;20051;-60
2023/07/26 09:25:37;;;;;;;10.73;2.87;;;;;;;19.41;56.06;100996.72;5108275;27;20051;-61
2023/07/26 09:28:07;;;;;;;7.85;2.22;;;;;;;19.86;54.07;100999.66;5105097;28;20056;-61
2023/07/26 09:30:37;;;;;;;6.60;2.30;;;;;;;19.56;55.63;100989.47;5105293;27;20047;-61
2023/07/26 09:33:06;;;;;;;9.63;2.17;;;;;;;19.39;57.22;101003.84;5106371;28;20047;-61
2023/07/26 09:35:53;;;;;;;7.10;2.42;;;;;;;19.34;57.57;100998.53;5084992;28;20048;-61
2023/07/26 09:38:26;;;;;;;7.55;2.30;;;;;;;19.22;56.53;100999.44;5089691;28;20043;-60
2023/07/26 09:40:53;;;;;;;8.25;1.67;;;;;;;19.30;55.27;101006.84;5111111;27;20070;-61
2023/07/26 09:43:32;;;;;;;7.25;1.92;;;;;;;19.61;55.22;100998.38;5096104;28;20081;-61
2023/07/26 09:46:03;;;;;;;7.60;2.17;;;;;;;19.48;54.71;101010.03;5088590;28;20055;-61
2023/07/26 09:48:34;;;;;;;7.32;2.25;;;;;;;19.59;55.26;101008.28;5108313;27;20051;-60
2023/07/26 09:51:08;;;;;;;8.27;1.92;;;;;;;19.93;54.47;101016.59;5091171;28;20040;-61
2023/07/26 09:53:39;;;;;;;6.95;2.00;;;;;;;20.07;52.62;101011.28;5090674;28;20043;-62
2023/07/26 09:56:07;;;;;;;5.60;1.90;;;;;;;20.44;51.67;101007.97;5092653;28;20047;-62
2023/07/26 09:58:34;;;;;;;33.22;3.97;;;;;;;20.83;49.44;101006.69;5090521;28;20059;-60
2023/07/26 10:01:02;;;;;;;10.73;2.88;;;;;;;20.83;49.09;101006.69;5107779;28;20047;-60
2023/07/26 10:03:31;;;;;;;10.25;2.45;;;;;;;20.67;49.90;101003.19;5105512;27;20043;-62
2023/07/26 10:05:59;;;;;;;11.65;2.80;;;;;;;20.87;50.00;100993.53;5085724;28;20050;-62
2023/07/26 10:08:29;;;;;;;13.18;2.83;;;;;;;20.75;50.01;100997.34;5089024;28;20440;-61
2023/07/26 10:10:57;;;;;;;8.27;2.30;;;;;;;20.54;50.05;100999.00;5093668;28;20043;-60
2023/07/26 10:13:26;;;;;;;9.02;2.50;;;;;;;20.80;48.89;101004.63;5088221;28;20043;-60
2023/07/26 10:15:54;;;;;;;5.57;1.98;;;;;;;21.11;48.77;100996.75;5106809;27;20054;-61
2023/07/26 10:18:24;;;;;;;8.18;2.00;;;;;;;20.85;46.93;101010.69;5108051;28;20423;-60
2023/07/26 10:20:56;;;;;;;4.30;1.80;;;;;;;21.18;47.58;101004.47;5075021;28;20051;-60
2023/07/26 10:23:24;;;;;;;4.68;1.90;;;;;;;20.81;47.43;101009.84;5113839;27;20055;-61
2023/07/26 10:25:52;;;;;;;8.75;2.25;;;;;;;21.17;45.45;101003.66;5099679;28;20047;-60
2023/07/26 10:28:20;;;;;;;7.75;2.28;;;;;;;21.12;46.30;101003.97;5109195;28;20051;-61
2023/07/26 10:30:48;;;;;;;5.90;3.10;;;;;;;21.36;45.97;101010.31;5087888;28;20397;-59
2023/07/26 10:33:16;;;;;;;13.68;7.72;;;;;;;21.15;45.23;101010.78;5112326;28;20046;-60
2023/07/26 10:35:43;;;;;;;6.00;2.67;;;;;;;20.56;45.31;101005.81;5091813;28;20043;-61
2023/07/26 10:38:13;;;;;;;7.55;3.58;;;;;;;20.91;45.55;101006.41;5090813;28;20074;-61
2023/07/26 10:40:40;;;;;;;7.57;2.92;;;;;;;21.28;45.87;101006.59;5106762;28;20064;-60
2023/07/26 10:43:20;;;;;;;7.65;2.63;;;;;;;21.43;45.15;100996.41;5092770;28;20044;-61
2023/07/26 10:45:49;;;;;;;5.90;2.42;;;;;;;21.47;44.89;101000.03;5111954;28;20052;-64
2023/07/26 10:48:40;;;;;;;6.22;2.15;;;;;;;21.73;44.63;100994.38;5089412;28;20062;-61
2023/07/26 10:51:31;;;;;;;11.60;5.20;;;;;;;21.77;44.25;100986.81;5111260;27;20050;-61
2023/07/26 10:54:00;;;;;;;17.40;10.25;;;;;;;21.39;44.50;100998.34;5105917;28;20595;-62
2023/07/26 10:56:31;;;;;;;7.65;3.22;;;;;;;21.49;43.30;100992.06;5111176;27;20051;-60
2023/07/26 10:59:05;;;;;;;13.00;3.20;;;;;;;21.24;43.30;101000.13;5109915;28;20059;-60
2023/07/26 11:01:45;;;;;;;7.70;2.92;;;;;;;21.36;44.11;100993.50;5110473;28;20051;-61
2023/07/26 11:04:20;;;;;;;7.43;2.85;;;;;;;21.37;44.06;101000.72;5110272;28;20047;-63
2023/07/26 11:06:55;;;;;;;9.40;4.78;;;;;;;21.72;42.59;100987.16;5088492;28;20052;-60
2023/07/26 11:09:27;;;;;;;25.08;14.30;;;;;;;21.74;43.26;100991.19;5102214;27;20043;-61
2023/07/26 11:11:55;;;;;;;15.27;6.30;;;;;;;22.12;42.72;100984.47;5109211;28;20050;-60
2023/07/26 11:14:25;;;;;;;23.30;10.50;;;;;;;22.09;43.25;100988.84;5109058;28;20066;-61
2023/07/26 11:16:53;;;;;;;18.73;9.90;;;;;;;22.29;42.78;100979.03;5083740;28;20058;-60
2023/07/26 11:19:24;;;;;;;8.18;4.30;;;;;;;21.92;42.68;100986.63;5089804;27;20051;-59
2023/07/26 11:22:02;;;;;;;8.93;3.55;;;;;;;20.87;43.14;100985.16;5088248;28;20055;-61
2023/07/26 11:24:30;;;;;;;8.57;5.43;;;;;;;20.96;43.06;100985.66;5105832;28;20039;-62
2023/07/26 11:27:03;;;;;;;8.98;3.90;;;;;;;21.61;42.00;100986.22;5109151;28;20040;-60